sensor_id;sensor_type;location;lat;lon;timestamp;P1;durP1;ratioP1;P2;durP2;ratioP2
10872;SDS011;34586;53.616;10.032;2023-06-22T00:00:52;3.80;;;2.83;;
10872;SDS011;34586;53.616;10.032;2023-06-22T00:03:19;4.20;;;2.53;;
10872;SDS011;34586;53.616;10.032;2023-06-22T00:05:45;3.13;;;2.93;;
10872;SDS011;34586;53.616;10.032;2023-06-22T00:08:11;2.97;;;2.73;;
10872;SDS011;34586;53.616;10.032;2023-06-22T00:10:37;3.37;;;2.73;;
10872;SDS011;34586;53.616;10.032;2023-06-22T00:13:03;2.90;;;2.50;;
10872;SDS011;34586;53.616;10.032;2023-06-22T00:15:29;2.93;;;2.73;;
10872;SDS011;34586;53.616;10.032;2023-06-22T00:17:55;3.03;;;2.73;;
10872;SDS011;34586;53.616;10.032;2023-06-22T00:20:23;3.03;;;2.73;;
10872;SDS011;34586;53.616;10.032;2023-06-22T00:22:56;3.27;;;2.97;;
10872;SDS011;34586;53.616;10.032;2023-06-22T00:25:22;3.23;;;3.00;;
10872;SDS011;34586;53.616;10.032;2023-06-22T00:27:48;3.33;;;3.03;;
10872;SDS011;34586;53.616;10.032;2023-06-22T00:30:17;4.30;;;3.07;;
10872;SDS011;34586;53.616;10.032;2023-06-22T00:32:43;3.10;;;2.70;;
10872;SDS011;34586;53.616;10.032;2023-06-22T00:35:11;2.93;;;2.73;;
10872;SDS011;34586;53.616;10.032;2023-06-22T00:37:38;3.13;;;2.93;;
10872;SDS011;34586;53.616;10.032;2023-06-22T00:40:07;2.80;;;2.60;;
10872;SDS011;34586;53.616;10.032;2023-06-22T00:42:37;3.07;;;2.77;;
10872;SDS011;34586;53.616;10.032;2023-06-22T00:45:04;2.83;;;2.63;;
10872;SDS011;34586;53.616;10.032;2023-06-22T00:47:30;3.20;;;2.90;;
10872;SDS011;34586;53.616;10.032;2023-06-22T00:49:56;3.53;;;3.23;;
10872;SDS011;34586;53.616;10.032;2023-06-22T00:52:22;3.17;;;2.87;;
10872;SDS011;34586;53.616;10.032;2023-06-22T00:54:54;3.00;;;2.80;;
10872;SDS011;34586;53.616;10.032;2023-06-22T00:57:21;3.27;;;2.60;;
10872;SDS011;34586;53.616;10.032;2023-06-22T00:59:50;4.13;;;2.67;;
10872;SDS011;34586;53.616;10.032;2023-06-22T01:02:16;3.40;;;3.10;;
10872;SDS011;34586;53.616;10.032;2023-06-22T01:04:41;3.10;;;2.90;;
10872;SDS011;34586;53.616;10.032;2023-06-22T01:09:51;3.00;;;2.60;;
10872;SDS011;34586;53.616;10.032;2023-06-22T01:12:32;2.80;;;2.60;;
10872;SDS011;34586;53.616;10.032;2023-06-22T01:15:07;3.27;;;3.03;;
10872;SDS011;34586;53.616;10.032;2023-06-22T01:17:35;3.17;;;2.87;;
10872;SDS011;34586;53.616;10.032;2023-06-22T01:20:04;2.87;;;2.67;;
10872;SDS011;34586;53.616;10.032;2023-06-22T01:22:31;3.27;;;2.57;;
10872;SDS011;34586;53.616;10.032;2023-06-22T01:25:11;3.53;;;3.20;;
10872;SDS011;34586;53.616;10.032;2023-06-22T01:30:37;4.37;;;3.00;;
10872;SDS011;34586;53.616;10.032;2023-06-22T01:33:04;3.03;;;2.83;;
10872;SDS011;34586;53.616;10.032;2023-06-22T01:35:31;2.87;;;2.73;;
10872;SDS011;34586;53.616;10.032;2023-06-22T01:37:57;3.17;;;2.83;;
10872;SDS011;34586;53.616;10.032;2023-06-22T01:40:23;3.10;;;2.90;;
10872;SDS011;34586;53.616;10.032;2023-06-22T01:42:50;3.23;;;3.00;;
10872;SDS011;34586;53.616;10.032;2023-06-22T01:45:16;5.57;;;3.53;;
10872;SDS011;34586;53.616;10.032;2023-06-22T01:47:42;3.20;;;3.00;;
10872;SDS011;34586;53.616;10.032;2023-06-22T01:50:08;3.13;;;2.93;;
10872;SDS011;34586;53.616;10.032;2023-06-22T01:52:34;3.10;;;2.80;;
10872;SDS011;34586;53.616;10.032;2023-06-22T01:55:00;3.37;;;3.07;;
10872;SDS011;34586;53.616;10.032;2023-06-22T01:57:26;3.40;;;3.13;;
10872;SDS011;34586;53.616;10.032;2023-06-22T01:59:54;3.67;;;3.30;;
10872;SDS011;34586;53.616;10.032;2023-06-22T02:02:27;3.50;;;3.20;;
10872;SDS011;34586;53.616;10.032;2023-06-22T02:05:07;3.80;;;3.50;;
10872;SDS011;34586;53.616;10.032;2023-06-22T02:07:39;3.50;;;3.20;;
10872;SDS011;34586;53.616;10.032;2023-06-22T02:10:11;3.97;;;3.57;;
10872;SDS011;34586;53.616;10.032;2023-06-22T02:12:40;3.83;;;3.50;;
10872;SDS011;34586;53.616;10.032;2023-06-22T02:15:09;3.63;;;3.33;;
10872;SDS011;34586;53.616;10.032;2023-06-22T02:17:35;3.97;;;3.57;;
10872;SDS011;34586;53.616;10.032;2023-06-22T02:20:04;3.40;;;3.20;;
10872;SDS011;34586;53.616;10.032;2023-06-22T02:22:32;4.13;;;3.73;;
10872;SDS011;34586;53.616;10.032;2023-06-22T02:24:58;4.17;;;3.77;;
10872;SDS011;34586;53.616;10.032;2023-06-22T02:27:23;3.97;;;3.53;;
10872;SDS011;34586;53.616;10.032;2023-06-22T02:29:49;4.03;;;3.73;;
10872;SDS011;34586;53.616;10.032;2023-06-22T02:32:14;3.63;;;3.33;;
10872;SDS011;34586;53.616;10.032;2023-06-22T02:34:42;4.27;;;3.87;;
10872;SDS011;34586;53.616;10.032;2023-06-22T02:37:12;4.17;;;3.73;;
10872;SDS011;34586;53.616;10.032;2023-06-22T02:39:40;4.10;;;3.70;;
10872;SDS011;34586;53.616;10.032;2023-06-22T02:42:06;6.37;;;3.87;;
10872;SDS011;34586;53.616;10.032;2023-06-22T02:44:32;3.67;;;3.33;;
10872;SDS011;34586;53.616;10.032;2023-06-22T02:46:57;4.13;;;3.70;;
10872;SDS011;34586;53.616;10.032;2023-06-22T02:49:23;4.20;;;3.80;;
10872;SDS011;34586;53.616;10.032;2023-06-22T02:51:49;4.40;;;4.10;;
10872;SDS011;34586;53.616;10.032;2023-06-22T02:54:14;4.33;;;3.40;;
10872;SDS011;34586;53.616;10.032;2023-06-22T02:56:41;4.20;;;3.90;;
10872;SDS011;34586;53.616;10.032;2023-06-22T02:59:08;4.37;;;3.93;;
10872;SDS011;34586;53.616;10.032;2023-06-22T03:01:35;4.17;;;3.77;;
10872;SDS011;34586;53.616;10.032;2023-06-22T03:04:04;4.83;;;4.47;;
10872;SDS011;34586;53.616;10.032;2023-06-22T03:06:31;4.77;;;3.93;;
10872;SDS011;34586;53.616;10.032;2023-06-22T03:08:59;4.30;;;4.00;;
10872;SDS011;34586;53.616;10.032;2023-06-22T03:11:25;5.73;;;4.67;;
10872;SDS011;34586;53.616;10.032;2023-06-22T03:13:51;8.50;;;4.77;;
10872;SDS011;34586;53.616;10.032;2023-06-22T03:16:18;4.73;;;4.30;;
10872;SDS011;34586;53.616;10.032;2023-06-22T03:18:44;5.17;;;4.60;;
10872;SDS011;34586;53.616;10.032;2023-06-22T03:21:09;5.67;;;4.73;;
10872;SDS011;34586;53.616;10.032;2023-06-22T03:23:35;6.10;;;4.40;;
10872;SDS011;34586;53.616;10.032;2023-06-22T03:26:01;4.80;;;4.40;;
10872;SDS011;34586;53.616;10.032;2023-06-22T03:28:27;5.47;;;4.93;;
10872;SDS011;34586;53.616;10.032;2023-06-22T03:30:52;4.73;;;4.27;;
10872;SDS011;34586;53.616;10.032;2023-06-22T03:33:18;5.33;;;4.83;;
10872;SDS011;34586;53.616;10.032;2023-06-22T03:35:43;5.80;;;5.10;;
10872;SDS011;34586;53.616;10.032;2023-06-22T03:38:09;5.23;;;4.77;;
10872;SDS011;34586;53.616;10.032;2023-06-22T03:40:34;5.93;;;5.40;;
10872;SDS011;34586;53.616;10.032;2023-06-22T03:43:00;8.47;;;5.10;;
10872;SDS011;34586;53.616;10.032;2023-06-22T03:45:26;5.90;;;5.27;;
10872;SDS011;34586;53.616;10.032;2023-06-22T03:47:51;6.63;;;6.00;;
10872;SDS011;34586;53.616;10.032;2023-06-22T03:50:17;7.97;;;5.53;;
10872;SDS011;34586;53.616;10.032;2023-06-22T03:52:45;5.70;;;5.10;;
10872;SDS011;34586;53.616;10.032;2023-06-22T03:55:11;6.93;;;4.83;;
10872;SDS011;34586;53.616;10.032;2023-06-22T03:57:36;6.23;;;5.33;;
10872;SDS011;34586;53.616;10.032;2023-06-22T04:00:02;5.97;;;5.37;;
10872;SDS011;34586;53.616;10.032;2023-06-22T04:02:30;6.17;;;5.07;;
10872;SDS011;34586;53.616;10.032;2023-06-22T04:04:56;5.83;;;5.30;;
10872;SDS011;34586;53.616;10.032;2023-06-22T04:07:22;6.37;;;5.23;;
10872;SDS011;34586;53.616;10.032;2023-06-22T04:09:47;5.03;;;4.63;;
10872;SDS011;34586;53.616;10.032;2023-06-22T04:12:13;7.83;;;6.17;;
10872;SDS011;34586;53.616;10.032;2023-06-22T04:14:38;5.23;;;4.73;;
10872;SDS011;34586;53.616;10.032;2023-06-22T04:17:04;5.50;;;5.00;;
10872;SDS011;34586;53.616;10.032;2023-06-22T04:19:30;7.03;;;5.30;;
10872;SDS011;34586;53.616;10.032;2023-06-22T04:21:56;8.93;;;5.50;;
10872;SDS011;34586;53.616;10.032;2023-06-22T04:24:21;6.40;;;5.30;;
10872;SDS011;34586;53.616;10.032;2023-06-22T04:26:47;5.03;;;4.63;;
10872;SDS011;34586;53.616;10.032;2023-06-22T04:29:13;5.20;;;4.70;;
10872;SDS011;34586;53.616;10.032;2023-06-22T04:31:38;5.50;;;4.53;;
10872;SDS011;34586;53.616;10.032;2023-06-22T04:34:05;6.20;;;4.97;;
10872;SDS011;34586;53.616;10.032;2023-06-22T04:39:04;4.97;;;4.43;;
10872;SDS011;34586;53.616;10.032;2023-06-22T04:41:43;5.70;;;5.20;;
10872;SDS011;34586;53.616;10.032;2023-06-22T04:46:37;6.60;;;5.13;;
10872;SDS011;34586;53.616;10.032;2023-06-22T04:49:06;7.77;;;5.10;;
10872;SDS011;34586;53.616;10.032;2023-06-22T04:51:35;5.03;;;4.60;;
10872;SDS011;34586;53.616;10.032;2023-06-22T04:54:04;5.20;;;4.70;;
10872;SDS011;34586;53.616;10.032;2023-06-22T04:56:31;5.93;;;4.50;;
10872;SDS011;34586;53.616;10.032;2023-06-22T04:58:57;5.43;;;4.10;;
10872;SDS011;34586;53.616;10.032;2023-06-22T05:01:23;5.20;;;4.70;;
10872;SDS011;34586;53.616;10.032;2023-06-22T05:03:49;5.10;;;4.70;;
10872;SDS011;34586;53.616;10.032;2023-06-22T05:06:14;4.50;;;4.00;;
10872;SDS011;34586;53.616;10.032;2023-06-22T05:08:40;4.40;;;4.00;;
10872;SDS011;34586;53.616;10.032;2023-06-22T05:11:06;5.67;;;4.20;;
10872;SDS011;34586;53.616;10.032;2023-06-22T05:13:32;4.93;;;4.47;;
10872;SDS011;34586;53.616;10.032;2023-06-22T05:15:57;5.13;;;4.37;;
10872;SDS011;34586;53.616;10.032;2023-06-22T05:18:30;4.57;;;4.17;;
10872;SDS011;34586;53.616;10.032;2023-06-22T05:20:57;4.40;;;4.07;;
10872;SDS011;34586;53.616;10.032;2023-06-22T05:23:23;4.67;;;4.23;;
10872;SDS011;34586;53.616;10.032;2023-06-22T05:25:49;4.07;;;3.67;;
10872;SDS011;34586;53.616;10.032;2023-06-22T05:28:16;3.43;;;3.13;;
10872;SDS011;34586;53.616;10.032;2023-06-22T05:30:41;3.53;;;3.23;;
10872;SDS011;34586;53.616;10.032;2023-06-22T05:33:07;3.90;;;3.50;;
10872;SDS011;34586;53.616;10.032;2023-06-22T05:35:32;3.73;;;3.43;;
10872;SDS011;34586;53.616;10.032;2023-06-22T05:37:58;3.20;;;2.90;;
10872;SDS011;34586;53.616;10.032;2023-06-22T05:40:23;4.57;;;2.70;;
10872;SDS011;34586;53.616;10.032;2023-06-22T05:42:49;2.93;;;2.70;;
10872;SDS011;34586;53.616;10.032;2023-06-22T05:45:14;2.90;;;2.60;;
10872;SDS011;34586;53.616;10.032;2023-06-22T05:47:40;4.03;;;2.43;;
10872;SDS011;34586;53.616;10.032;2023-06-22T05:50:06;3.77;;;2.23;;
10872;SDS011;34586;53.616;10.032;2023-06-22T05:52:33;2.60;;;2.20;;
10872;SDS011;34586;53.616;10.032;2023-06-22T05:54:59;3.37;;;2.40;;
10872;SDS011;34586;53.616;10.032;2023-06-22T05:57:24;5.00;;;2.23;;
10872;SDS011;34586;53.616;10.032;2023-06-22T05:59:50;2.70;;;2.10;;
10872;SDS011;34586;53.616;10.032;2023-06-22T06:02:16;1.80;;;1.70;;
10872;SDS011;34586;53.616;10.032;2023-06-22T06:04:42;2.40;;;2.10;;
10872;SDS011;34586;53.616;10.032;2023-06-22T06:07:08;2.43;;;2.23;;
10872;SDS011;34586;53.616;10.032;2023-06-22T06:09:33;4.57;;;2.33;;
10872;SDS011;34586;53.616;10.032;2023-06-22T06:11:59;1.83;;;1.67;;
10872;SDS011;34586;53.616;10.032;2023-06-22T06:14:24;1.70;;;1.60;;
10872;SDS011;34586;53.616;10.032;2023-06-22T06:16:50;3.77;;;1.90;;
10872;SDS011;34586;53.616;10.032;2023-06-22T06:19:15;2.87;;;2.10;;
10872;SDS011;34586;53.616;10.032;2023-06-22T06:21:41;2.33;;;1.90;;
10872;SDS011;34586;53.616;10.032;2023-06-22T06:24:07;2.30;;;2.10;;
10872;SDS011;34586;53.616;10.032;2023-06-22T06:26:32;1.93;;;1.73;;
10872;SDS011;34586;53.616;10.032;2023-06-22T06:28:59;3.87;;;2.17;;
10872;SDS011;34586;53.616;10.032;2023-06-22T06:31:25;2.17;;;1.60;;
10872;SDS011;34586;53.616;10.032;2023-06-22T06:33:54;2.97;;;1.90;;
10872;SDS011;34586;53.616;10.032;2023-06-22T06:36:20;1.93;;;1.77;;
10872;SDS011;34586;53.616;10.032;2023-06-22T06:38:46;1.73;;;1.50;;
10872;SDS011;34586;53.616;10.032;2023-06-22T06:41:15;2.13;;;1.93;;
10872;SDS011;34586;53.616;10.032;2023-06-22T06:43:41;3.20;;;1.97;;
10872;SDS011;34586;53.616;10.032;2023-06-22T06:46:10;2.30;;;2.00;;
10872;SDS011;34586;53.616;10.032;2023-06-22T06:48:36;2.60;;;1.87;;
10872;SDS011;34586;53.616;10.032;2023-06-22T06:51:02;2.93;;;2.10;;
10872;SDS011;34586;53.616;10.032;2023-06-22T06:53:27;3.47;;;2.07;;
10872;SDS011;34586;53.616;10.032;2023-06-22T06:55:53;1.80;;;1.70;;
10872;SDS011;34586;53.616;10.032;2023-06-22T06:58:19;2.10;;;1.90;;
10872;SDS011;34586;53.616;10.032;2023-06-22T07:00:45;2.30;;;2.10;;
10872;SDS011;34586;53.616;10.032;2023-06-22T07:03:10;2.27;;;2.03;;
10872;SDS011;34586;53.616;10.032;2023-06-22T07:05:36;4.90;;;2.20;;
10872;SDS011;34586;53.616;10.032;2023-06-22T07:08:02;2.13;;;1.70;;
10872;SDS011;34586;53.616;10.032;2023-06-22T07:10:28;2.03;;;1.80;;
10872;SDS011;34586;53.616;10.032;2023-06-22T07:12:54;1.90;;;1.70;;
10872;SDS011;34586;53.616;10.032;2023-06-22T07:15:19;1.87;;;1.73;;
10872;SDS011;34586;53.616;10.032;2023-06-22T07:17:45;2.23;;;1.83;;
10872;SDS011;34586;53.616;10.032;2023-06-22T07:20:11;2.00;;;1.90;;
10872;SDS011;34586;53.616;10.032;2023-06-22T07:22:46;3.27;;;2.50;;
10872;SDS011;34586;53.616;10.032;2023-06-22T07:25:11;2.70;;;1.90;;
10872;SDS011;34586;53.616;10.032;2023-06-22T07:28:17;2.13;;;1.93;;
10872;SDS011;34586;53.616;10.032;2023-06-22T07:30:36;2.50;;;1.77;;
10872;SDS011;34586;53.616;10.032;2023-06-22T07:33:02;3.33;;;1.90;;
10872;SDS011;34586;53.616;10.032;2023-06-22T07:35:31;2.37;;;2.10;;
10872;SDS011;34586;53.616;10.032;2023-06-22T07:37:57;2.13;;;1.93;;
10872;SDS011;34586;53.616;10.032;2023-06-22T07:40:23;3.27;;;1.90;;
10872;SDS011;34586;53.616;10.032;2023-06-22T07:42:48;2.67;;;2.30;;
10872;SDS011;34586;53.616;10.032;2023-06-22T07:45:16;4.60;;;1.93;;
10872;SDS011;34586;53.616;10.032;2023-06-22T07:47:42;5.27;;;2.07;;
10872;SDS011;34586;53.616;10.032;2023-06-22T07:50:08;2.07;;;1.97;;
10872;SDS011;34586;53.616;10.032;2023-06-22T07:52:34;1.93;;;1.83;;
10872;SDS011;34586;53.616;10.032;2023-06-22T07:55:00;2.77;;;1.73;;
10872;SDS011;34586;53.616;10.032;2023-06-22T07:57:25;3.60;;;2.40;;
10872;SDS011;34586;53.616;10.032;2023-06-22T07:59:57;2.50;;;1.70;;
10872;SDS011;34586;53.616;10.032;2023-06-22T08:02:23;2.80;;;2.30;;
10872;SDS011;34586;53.616;10.032;2023-06-22T08:04:49;1.80;;;1.70;;
10872;SDS011;34586;53.616;10.032;2023-06-22T08:07:15;1.90;;;1.80;;
10872;SDS011;34586;53.616;10.032;2023-06-22T08:09:42;2.00;;;1.90;;
10872;SDS011;34586;53.616;10.032;2023-06-22T08:12:12;2.43;;;1.50;;
10872;SDS011;34586;53.616;10.032;2023-06-22T08:14:38;1.80;;;1.70;;
10872;SDS011;34586;53.616;10.032;2023-06-22T08:17:04;2.67;;;2.20;;
10872;SDS011;34586;53.616;10.032;2023-06-22T08:19:30;2.40;;;2.20;;
10872;SDS011;34586;53.616;10.032;2023-06-22T08:21:56;2.90;;;2.00;;
10872;SDS011;34586;53.616;10.032;2023-06-22T08:24:22;2.40;;;2.20;;
10872;SDS011;34586;53.616;10.032;2023-06-22T08:26:47;2.27;;;2.00;;
10872;SDS011;34586;53.616;10.032;2023-06-22T08:29:16;2.23;;;2.03;;
10872;SDS011;34586;53.616;10.032;2023-06-22T08:31:41;4.30;;;2.10;;
10872;SDS011;34586;53.616;10.032;2023-06-22T08:34:07;2.47;;;2.27;;
10872;SDS011;34586;53.616;10.032;2023-06-22T08:36:32;1.60;;;1.50;;
10872;SDS011;34586;53.616;10.032;2023-06-22T08:39:02;3.23;;;2.37;;
10872;SDS011;34586;53.616;10.032;2023-06-22T08:41:29;2.00;;;1.73;;
10872;SDS011;34586;53.616;10.032;2023-06-22T08:43:54;2.63;;;2.17;;
10872;SDS011;34586;53.616;10.032;2023-06-22T08:46:20;2.33;;;2.13;;
10872;SDS011;34586;53.616;10.032;2023-06-22T08:48:49;3.50;;;2.07;;
10872;SDS011;34586;53.616;10.032;2023-06-22T08:51:15;2.90;;;2.17;;
10872;SDS011;34586;53.616;10.032;2023-06-22T08:53:42;2.10;;;1.87;;
10872;SDS011;34586;53.616;10.032;2023-06-22T08:56:08;2.93;;;2.10;;
10872;SDS011;34586;53.616;10.032;2023-06-22T08:58:33;2.33;;;2.10;;
10872;SDS011;34586;53.616;10.032;2023-06-22T09:00:59;2.90;;;2.03;;
10872;SDS011;34586;53.616;10.032;2023-06-22T09:03:26;3.57;;;1.80;;
10872;SDS011;34586;53.616;10.032;2023-06-22T09:05:52;4.20;;;2.10;;
10872;SDS011;34586;53.616;10.032;2023-06-22T09:08:17;2.00;;;1.80;;
10872;SDS011;34586;53.616;10.032;2023-06-22T09:10:43;3.07;;;1.70;;
10872;SDS011;34586;53.616;10.032;2023-06-22T09:13:08;3.30;;;1.93;;
10872;SDS011;34586;53.616;10.032;2023-06-22T09:15:34;1.90;;;1.80;;
10872;SDS011;34586;53.616;10.032;2023-06-22T09:18:00;3.60;;;1.90;;
10872;SDS011;34586;53.616;10.032;2023-06-22T09:20:26;3.97;;;1.90;;
10872;SDS011;34586;53.616;10.032;2023-06-22T09:22:51;2.80;;;2.03;;
10872;SDS011;34586;53.616;10.032;2023-06-22T09:25:17;3.43;;;1.93;;
10872;SDS011;34586;53.616;10.032;2023-06-22T09:27:45;2.67;;;1.90;;
10872;SDS011;34586;53.616;10.032;2023-06-22T09:30:11;3.50;;;2.60;;
10872;SDS011;34586;53.616;10.032;2023-06-22T09:32:37;5.20;;;2.60;;
10872;SDS011;34586;53.616;10.032;2023-06-22T09:35:04;2.53;;;1.80;;
10872;SDS011;34586;53.616;10.032;2023-06-22T09:37:34;3.17;;;1.90;;
10872;SDS011;34586;53.616;10.032;2023-06-22T09:40:00;2.50;;;2.10;;
10872;SDS011;34586;53.616;10.032;2023-06-22T09:42:25;3.47;;;2.00;;
10872;SDS011;34586;53.616;10.032;2023-06-22T09:44:51;4.30;;;2.90;;
10872;SDS011;34586;53.616;10.032;2023-06-22T09:47:16;4.20;;;2.47;;
10872;SDS011;34586;53.616;10.032;2023-06-22T09:49:42;2.63;;;1.57;;
10872;SDS011;34586;53.616;10.032;2023-06-22T09:52:07;2.53;;;1.93;;
10872;SDS011;34586;53.616;10.032;2023-06-22T09:54:33;2.47;;;2.10;;
10872;SDS011;34586;53.616;10.032;2023-06-22T09:56:59;1.47;;;1.37;;
10872;SDS011;34586;53.616;10.032;2023-06-22T09:59:24;2.00;;;1.80;;
10872;SDS011;34586;53.616;10.032;2023-06-22T10:01:50;1.70;;;1.60;;
10872;SDS011;34586;53.616;10.032;2023-06-22T10:04:15;2.30;;;2.07;;
10872;SDS011;34586;53.616;10.032;2023-06-22T10:06:41;2.00;;;1.90;;
10872;SDS011;34586;53.616;10.032;2023-06-22T10:09:07;2.10;;;1.70;;
10872;SDS011;34586;53.616;10.032;2023-06-22T10:11:33;2.17;;;1.97;;
10872;SDS011;34586;53.616;10.032;2023-06-22T10:14:00;2.20;;;1.60;;
10872;SDS011;34586;53.616;10.032;2023-06-22T10:16:32;4.77;;;2.03;;
10872;SDS011;34586;53.616;10.032;2023-06-22T10:18:58;2.13;;;2.00;;
10872;SDS011;34586;53.616;10.032;2023-06-22T10:21:24;1.80;;;1.70;;
10872;SDS011;34586;53.616;10.032;2023-06-22T10:23:52;2.80;;;1.93;;
10872;SDS011;34586;53.616;10.032;2023-06-22T10:26:17;1.67;;;1.57;;
10872;SDS011;34586;53.616;10.032;2023-06-22T10:28:43;2.40;;;1.60;;
10872;SDS011;34586;53.616;10.032;2023-06-22T10:31:08;3.47;;;2.40;;
10872;SDS011;34586;53.616;10.032;2023-06-22T10:33:34;2.37;;;2.13;;
10872;SDS011;34586;53.616;10.032;2023-06-22T10:35:59;3.57;;;1.93;;
10872;SDS011;34586;53.616;10.032;2023-06-22T10:38:25;2.03;;;1.87;;
10872;SDS011;34586;53.616;10.032;2023-06-22T10:40:51;2.23;;;1.73;;
10872;SDS011;34586;53.616;10.032;2023-06-22T10:43:16;1.93;;;1.83;;
10872;SDS011;34586;53.616;10.032;2023-06-22T10:45:42;1.97;;;1.77;;
10872;SDS011;34586;53.616;10.032;2023-06-22T10:48:07;2.20;;;2.00;;
10872;SDS011;34586;53.616;10.032;2023-06-22T10:50:33;2.00;;;1.80;;
10872;SDS011;34586;53.616;10.032;2023-06-22T10:52:59;2.23;;;2.03;;
10872;SDS011;34586;53.616;10.032;2023-06-22T10:55:24;2.57;;;1.83;;
10872;SDS011;34586;53.616;10.032;2023-06-22T10:57:50;2.63;;;1.87;;
10872;SDS011;34586;53.616;10.032;2023-06-22T11:00:17;1.80;;;1.70;;
10872;SDS011;34586;53.616;10.032;2023-06-22T11:02:43;2.60;;;1.90;;
10872;SDS011;34586;53.616;10.032;2023-06-22T11:05:08;2.13;;;1.97;;
10872;SDS011;34586;53.616;10.032;2023-06-22T11:07:34;3.23;;;2.23;;
10872;SDS011;34586;53.616;10.032;2023-06-22T11:10:00;2.17;;;2.00;;
10872;SDS011;34586;53.616;10.032;2023-06-22T11:12:25;2.70;;;2.50;;
10872;SDS011;34586;53.616;10.032;2023-06-22T11:14:51;3.00;;;2.20;;
10872;SDS011;34586;53.616;10.032;2023-06-22T11:17:17;2.30;;;2.10;;
10872;SDS011;34586;53.616;10.032;2023-06-22T11:19:43;2.93;;;2.40;;
10872;SDS011;34586;53.616;10.032;2023-06-22T11:22:09;4.17;;;2.07;;
10872;SDS011;34586;53.616;10.032;2023-06-22T11:24:35;2.60;;;2.40;;
10872;SDS011;34586;53.616;10.032;2023-06-22T11:27:01;1.93;;;1.83;;
10872;SDS011;34586;53.616;10.032;2023-06-22T11:29:26;2.77;;;2.10;;
10872;SDS011;34586;53.616;10.032;2023-06-22T11:31:52;3.70;;;2.40;;
10872;SDS011;34586;53.616;10.032;2023-06-22T11:34:17;3.00;;;2.80;;
10872;SDS011;34586;53.616;10.032;2023-06-22T11:36:44;2.23;;;2.13;;
10872;SDS011;34586;53.616;10.032;2023-06-22T11:39:10;2.37;;;2.13;;
10872;SDS011;34586;53.616;10.032;2023-06-22T11:41:36;2.50;;;2.30;;
10872;SDS011;34586;53.616;10.032;2023-06-22T11:44:02;2.00;;;1.90;;
10872;SDS011;34586;53.616;10.032;2023-06-22T11:46:29;2.40;;;2.20;;
10872;SDS011;34586;53.616;10.032;2023-06-22T11:48:55;2.50;;;2.30;;
10872;SDS011;34586;53.616;10.032;2023-06-22T11:51:20;3.20;;;2.70;;
10872;SDS011;34586;53.616;10.032;2023-06-22T11:53:46;3.30;;;2.83;;
10872;SDS011;34586;53.616;10.032;2023-06-22T11:56:11;2.40;;;2.30;;
10872;SDS011;34586;53.616;10.032;2023-06-22T11:58:37;2.80;;;2.60;;
10872;SDS011;34586;53.616;10.032;2023-06-22T12:01:03;2.47;;;2.27;;
10872;SDS011;34586;53.616;10.032;2023-06-22T12:03:28;2.60;;;2.17;;
10872;SDS011;34586;53.616;10.032;2023-06-22T12:05:55;2.63;;;2.37;;
10872;SDS011;34586;53.616;10.032;2023-06-22T12:08:21;2.63;;;2.43;;
10872;SDS011;34586;53.616;10.032;2023-06-22T12:10:47;2.20;;;2.00;;
10872;SDS011;34586;53.616;10.032;2023-06-22T12:13:15;2.60;;;2.20;;
10872;SDS011;34586;53.616;10.032;2023-06-22T12:15:40;2.77;;;2.57;;
10872;SDS011;34586;53.616;10.032;2023-06-22T12:18:06;2.83;;;2.43;;
10872;SDS011;34586;53.616;10.032;2023-06-22T12:20:32;2.57;;;2.37;;
10872;SDS011;34586;53.616;10.032;2023-06-22T12:22:57;2.87;;;2.67;;
10872;SDS011;34586;53.616;10.032;2023-06-22T12:25:23;2.30;;;2.20;;
10872;SDS011;34586;53.616;10.032;2023-06-22T12:27:49;2.60;;;2.40;;
10872;SDS011;34586;53.616;10.032;2023-06-22T12:30:15;2.73;;;2.40;;
10872;SDS011;34586;53.616;10.032;2023-06-22T12:32:41;2.50;;;2.30;;
10872;SDS011;34586;53.616;10.032;2023-06-22T12:35:07;2.87;;;2.63;;
10872;SDS011;34586;53.616;10.032;2023-06-22T12:37:38;2.67;;;2.40;;
10872;SDS011;34586;53.616;10.032;2023-06-22T12:40:07;2.57;;;2.27;;
10872;SDS011;34586;53.616;10.032;2023-06-22T12:42:34;4.53;;;2.60;;
10872;SDS011;34586;53.616;10.032;2023-06-22T12:44:59;2.53;;;2.40;;
10872;SDS011;34586;53.616;10.032;2023-06-22T12:47:25;2.67;;;2.47;;
10872;SDS011;34586;53.616;10.032;2023-06-22T12:49:51;2.30;;;2.10;;
10872;SDS011;34586;53.616;10.032;2023-06-22T12:52:16;2.83;;;2.50;;
10872;SDS011;34586;53.616;10.032;2023-06-22T12:54:42;4.33;;;2.30;;
10872;SDS011;34586;53.616;10.032;2023-06-22T12:57:08;2.60;;;2.40;;
10872;SDS011;34586;53.616;10.032;2023-06-22T12:59:33;3.20;;;2.53;;
10872;SDS011;34586;53.616;10.032;2023-06-22T13:01:59;2.50;;;2.40;;
10872;SDS011;34586;53.616;10.032;2023-06-22T13:04:24;2.77;;;2.57;;
10872;SDS011;34586;53.616;10.032;2023-06-22T13:06:50;2.73;;;2.50;;
10872;SDS011;34586;53.616;10.032;2023-06-22T13:09:19;3.00;;;2.90;;
10872;SDS011;34586;53.616;10.032;2023-06-22T13:11:45;2.93;;;2.70;;
10872;SDS011;34586;53.616;10.032;2023-06-22T13:14:10;4.30;;;2.80;;
10872;SDS011;34586;53.616;10.032;2023-06-22T13:16:36;3.40;;;3.10;;
10872;SDS011;34586;53.616;10.032;2023-06-22T13:19:02;3.30;;;3.00;;
10872;SDS011;34586;53.616;10.032;2023-06-22T13:21:27;2.57;;;2.47;;
10872;SDS011;34586;53.616;10.032;2023-06-22T13:23:53;2.90;;;2.70;;
10872;SDS011;34586;53.616;10.032;2023-06-22T13:26:20;3.20;;;2.90;;
10872;SDS011;34586;53.616;10.032;2023-06-22T13:28:47;3.07;;;2.50;;
10872;SDS011;34586;53.616;10.032;2023-06-22T13:31:12;2.37;;;2.27;;
10872;SDS011;34586;53.616;10.032;2023-06-22T13:33:38;3.60;;;2.60;;
10872;SDS011;34586;53.616;10.032;2023-06-22T13:36:05;3.67;;;2.90;;
10872;SDS011;34586;53.616;10.032;2023-06-22T13:38:32;3.00;;;2.63;;
10872;SDS011;34586;53.616;10.032;2023-06-22T13:40:58;3.27;;;3.07;;
10872;SDS011;34586;53.616;10.032;2023-06-22T13:43:24;3.07;;;2.87;;
10872;SDS011;34586;53.616;10.032;2023-06-22T13:45:51;3.37;;;3.07;;
10872;SDS011;34586;53.616;10.032;2023-06-22T13:48:17;2.80;;;2.50;;
10872;SDS011;34586;53.616;10.032;2023-06-22T13:50:43;3.27;;;3.07;;
10872;SDS011;34586;53.616;10.032;2023-06-22T13:53:08;5.03;;;2.87;;
10872;SDS011;34586;53.616;10.032;2023-06-22T13:55:34;3.30;;;3.10;;
10872;SDS011;34586;53.616;10.032;2023-06-22T13:58:00;2.97;;;2.67;;
10872;SDS011;34586;53.616;10.032;2023-06-22T14:00:25;2.87;;;2.67;;
10872;SDS011;34586;53.616;10.032;2023-06-22T14:02:52;3.37;;;3.07;;
10872;SDS011;34586;53.616;10.032;2023-06-22T14:05:18;3.20;;;2.93;;
10872;SDS011;34586;53.616;10.032;2023-06-22T14:07:44;3.40;;;3.10;;
10872;SDS011;34586;53.616;10.032;2023-06-22T14:10:10;5.53;;;3.40;;
10872;SDS011;34586;53.616;10.032;2023-06-22T14:12:36;3.27;;;3.07;;
10872;SDS011;34586;53.616;10.032;2023-06-22T14:15:01;2.80;;;2.60;;
10872;SDS011;34586;53.616;10.032;2023-06-22T14:17:27;3.27;;;3.07;;
10872;SDS011;34586;53.616;10.032;2023-06-22T14:19:53;4.73;;;2.90;;
10872;SDS011;34586;53.616;10.032;2023-06-22T14:22:19;3.10;;;2.90;;
10872;SDS011;34586;53.616;10.032;2023-06-22T14:24:45;3.33;;;3.00;;
10872;SDS011;34586;53.616;10.032;2023-06-22T14:27:12;3.23;;;2.90;;
10872;SDS011;34586;53.616;10.032;2023-06-22T14:29:37;3.47;;;2.80;;
10872;SDS011;34586;53.616;10.032;2023-06-22T14:32:03;3.63;;;2.90;;
10872;SDS011;34586;53.616;10.032;2023-06-22T14:34:31;3.80;;;2.90;;
10872;SDS011;34586;53.616;10.032;2023-06-22T14:36:57;2.77;;;2.53;;
10872;SDS011;34586;53.616;10.032;2023-06-22T14:39:23;3.17;;;2.87;;